sensor_id;sensor_type;location;lat;lon;timestamp;P1;durP1;ratioP1;P2;durP2;ratioP2
35074;SDS011;21260;34.984;32.490;2023-02-02T00:00:25;6.30;;;2.17;;
35074;SDS011;21260;34.984;32.490;2023-02-02T00:02:58;6.23;;;1.60;;
35074;SDS011;21260;34.984;32.490;2023-02-02T00:05:28;6.93;;;2.10;;
35074;SDS011;21260;34.984;32.490;2023-02-02T00:07:55;4.00;;;1.70;;
35074;SDS011;21260;34.984;32.490;2023-02-02T00:10:27;9.23;;;2.00;;
35074;SDS011;21260;34.984;32.490;2023-02-02T00:12:55;5.87;;;1.40;;
35074;SDS011;21260;34.984;32.490;2023-02-02T00:15:27;6.80;;;1.60;;
35074;SDS011;21260;34.984;32.490;2023-02-02T00:17:58;11.90;;;1.77;;
35074;SDS011;21260;34.984;32.490;2023-02-02T00:20:33;7.80;;;2.10;;
35074;SDS011;21260;34.984;32.490;2023-02-02T00:23:12;14.23;;;1.93;;
35074;SDS011;21260;34.984;32.490;2023-02-02T00:25:48;5.40;;;1.70;;
35074;SDS011;21260;34.984;32.490;2023-02-02T00:28:26;5.80;;;1.80;;
35074;SDS011;21260;34.984;32.490;2023-02-02T00:30:53;7.47;;;1.80;;
35074;SDS011;21260;34.984;32.490;2023-02-02T00:33:43;3.50;;;1.77;;
35074;SDS011;21260;34.984;32.490;2023-02-02T00:36:24;8.70;;;2.23;;
35074;SDS011;21260;34.984;32.490;2023-02-02T00:38:59;8.80;;;1.80;;
35074;SDS011;21260;34.984;32.490;2023-02-02T00:41:29;13.43;;;2.07;;
35074;SDS011;21260;34.984;32.490;2023-02-02T00:44:03;9.07;;;2.00;;
35074;SDS011;21260;34.984;32.490;2023-02-02T00:46:52;10.03;;;1.73;;
35074;SDS011;21260;34.984;32.490;2023-02-02T00:49:30;7.00;;;1.87;;
35074;SDS011;21260;34.984;32.490;2023-02-02T00:51:58;9.07;;;1.70;;
35074;SDS011;21260;34.984;32.490;2023-02-02T00:54:38;8.20;;;1.87;;
35074;SDS011;21260;34.984;32.490;2023-02-02T00:57:13;14.27;;;1.90;;
35074;SDS011;21260;34.984;32.490;2023-02-02T00:59:54;7.03;;;1.73;;
35074;SDS011;21260;34.984;32.490;2023-02-02T01:02:30;4.77;;;1.80;;
35074;SDS011;21260;34.984;32.490;2023-02-02T01:05:07;5.57;;;1.87;;
35074;SDS011;21260;34.984;32.490;2023-02-02T01:07:42;10.20;;;2.10;;
35074;SDS011;21260;34.984;32.490;2023-02-02T01:10:16;6.87;;;1.57;;
35074;SDS011;21260;34.984;32.490;2023-02-02T01:12:48;9.77;;;1.97;;
35074;SDS011;21260;34.984;32.490;2023-02-02T01:15:15;13.03;;;2.10;;
35074;SDS011;21260;34.984;32.490;2023-02-02T01:17:55;6.83;;;2.20;;
35074;SDS011;21260;34.984;32.490;2023-02-02T01:20:32;10.43;;;2.30;;
35074;SDS011;21260;34.984;32.490;2023-02-02T01:23:02;3.47;;;1.57;;
35074;SDS011;21260;34.984;32.490;2023-02-02T01:25:41;3.90;;;1.50;;
35074;SDS011;21260;34.984;32.490;2023-02-02T01:28:22;7.97;;;1.87;;
35074;SDS011;21260;34.984;32.490;2023-02-02T01:30:55;14.50;;;2.23;;
35074;SDS011;21260;34.984;32.490;2023-02-02T01:33:41;13.50;;;2.17;;
35074;SDS011;21260;34.984;32.490;2023-02-02T01:36:18;6.63;;;1.60;;
35074;SDS011;21260;34.984;32.490;2023-02-02T01:38:52;9.57;;;1.63;;
35074;SDS011;21260;34.984;32.490;2023-02-02T01:41:42;7.77;;;1.73;;
35074;SDS011;21260;34.984;32.490;2023-02-02T01:47:46;8.87;;;1.70;;
35074;SDS011;21260;34.984;32.490;2023-02-02T01:50:25;11.60;;;2.17;;
35074;SDS011;21260;34.984;32.490;2023-02-02T01:53:01;6.13;;;1.90;;
35074;SDS011;21260;34.984;32.490;2023-02-02T01:55:33;10.77;;;2.17;;
35074;SDS011;21260;34.984;32.490;2023-02-02T01:58:08;21.23;;;1.90;;
35074;SDS011;21260;34.984;32.490;2023-02-02T02:00:58;12.30;;;2.23;;
35074;SDS011;21260;34.984;32.490;2023-02-02T02:03:29;9.47;;;2.30;;
35074;SDS011;21260;34.984;32.490;2023-02-02T02:06:08;7.30;;;1.60;;
35074;SDS011;21260;34.984;32.490;2023-02-02T02:11:31;4.63;;;1.93;;
35074;SDS011;21260;34.984;32.490;2023-02-02T02:14:08;8.63;;;2.30;;
35074;SDS011;21260;34.984;32.490;2023-02-02T02:37:43;7.73;;;1.97;;
35074;SDS011;21260;34.984;32.490;2023-02-02T02:40:37;14.57;;;2.77;;
35074;SDS011;21260;34.984;32.490;2023-02-02T02:43:29;5.33;;;1.30;;
35074;SDS011;21260;34.984;32.490;2023-02-02T02:46:08;7.30;;;1.97;;
35074;SDS011;21260;34.984;32.490;2023-02-02T02:48:42;7.17;;;2.03;;
35074;SDS011;21260;34.984;32.490;2023-02-02T02:54:13;10.50;;;2.80;;
35074;SDS011;21260;34.984;32.490;2023-02-02T03:09:48;10.83;;;1.70;;
35074;SDS011;21260;34.984;32.490;2023-02-02T03:12:30;5.43;;;1.70;;
35074;SDS011;21260;34.984;32.490;2023-02-02T03:14:57;8.83;;;2.13;;
35074;SDS011;21260;34.984;32.490;2023-02-02T03:17:32;5.23;;;1.80;;
35074;SDS011;21260;34.984;32.490;2023-02-02T03:20:03;7.33;;;1.90;;
35074;SDS011;21260;34.984;32.490;2023-02-02T03:22:33;10.23;;;2.70;;
35074;SDS011;21260;34.984;32.490;2023-02-02T03:25:04;6.87;;;2.00;;
35074;SDS011;21260;34.984;32.490;2023-02-02T03:27:38;6.40;;;2.13;;
35074;SDS011;21260;34.984;32.490;2023-02-02T03:30:10;14.63;;;2.13;;
35074;SDS011;21260;34.984;32.490;2023-02-02T03:32:39;7.50;;;2.03;;
35074;SDS011;21260;34.984;32.490;2023-02-02T03:35:12;9.90;;;2.00;;
35074;SDS011;21260;34.984;32.490;2023-02-02T03:37:54;9.17;;;1.70;;
35074;SDS011;21260;34.984;32.490;2023-02-02T03:40:21;7.63;;;2.00;;
35074;SDS011;21260;34.984;32.490;2023-02-02T03:42:52;9.27;;;2.00;;
35074;SDS011;21260;34.984;32.490;2023-02-02T03:45:31;11.33;;;1.83;;
35074;SDS011;21260;34.984;32.490;2023-02-02T03:48:10;8.87;;;2.10;;
35074;SDS011;21260;34.984;32.490;2023-02-02T03:50:37;6.17;;;1.57;;
35074;SDS011;21260;34.984;32.490;2023-02-02T03:53:04;9.57;;;1.87;;
35074;SDS011;21260;34.984;32.490;2023-02-02T03:55:42;10.10;;;1.80;;
35074;SDS011;21260;34.984;32.490;2023-02-02T03:58:28;10.57;;;1.73;;
35074;SDS011;21260;34.984;32.490;2023-02-02T04:01:09;8.70;;;1.87;;
35074;SDS011;21260;34.984;32.490;2023-02-02T04:03:39;7.70;;;1.90;;
35074;SDS011;21260;34.984;32.490;2023-02-02T04:06:10;4.73;;;1.50;;
35074;SDS011;21260;34.984;32.490;2023-02-02T04:08:48;6.87;;;1.80;;
35074;SDS011;21260;34.984;32.490;2023-02-02T04:11:15;5.33;;;1.63;;
35074;SDS011;21260;34.984;32.490;2023-02-02T04:13:50;4.57;;;1.63;;
35074;SDS011;21260;34.984;32.490;2023-02-02T04:16:31;7.63;;;2.00;;
35074;SDS011;21260;34.984;32.490;2023-02-02T04:19:07;5.93;;;2.03;;
35074;SDS011;21260;34.984;32.490;2023-02-02T04:21:42;9.53;;;1.93;;
35074;SDS011;21260;34.984;32.490;2023-02-02T04:24:22;7.63;;;1.93;;
35074;SDS011;21260;34.984;32.490;2023-02-02T04:26:51;12.73;;;2.03;;
35074;SDS011;21260;34.984;32.490;2023-02-02T04:29:27;3.83;;;1.50;;
35074;SDS011;21260;34.984;32.490;2023-02-02T04:32:13;10.20;;;2.10;;
35074;SDS011;21260;34.984;32.490;2023-02-02T04:35:06;13.07;;;2.00;;
35074;SDS011;21260;34.984;32.490;2023-02-02T04:37:38;9.80;;;2.23;;
35074;SDS011;21260;34.984;32.490;2023-02-02T04:40:20;5.17;;;1.80;;
35074;SDS011;21260;34.984;32.490;2023-02-02T04:42:47;5.73;;;1.60;;
35074;SDS011;21260;34.984;32.490;2023-02-02T04:45:25;8.87;;;1.63;;
35074;SDS011;21260;34.984;32.490;2023-02-02T04:47:52;4.30;;;1.57;;
35074;SDS011;21260;34.984;32.490;2023-02-02T04:50:22;3.87;;;1.60;;
35074;SDS011;21260;34.984;32.490;2023-02-02T04:53:20;8.43;;;1.60;;
35074;SDS011;21260;34.984;32.490;2023-02-02T04:56:04;7.37;;;1.50;;
35074;SDS011;21260;34.984;32.490;2023-02-02T04:58:37;8.50;;;2.10;;
35074;SDS011;21260;34.984;32.490;2023-02-02T05:01:10;7.57;;;1.97;;
35074;SDS011;21260;34.984;32.490;2023-02-02T05:03:43;6.33;;;1.80;;
35074;SDS011;21260;34.984;32.490;2023-02-02T05:06:24;9.40;;;1.90;;
35074;SDS011;21260;34.984;32.490;2023-02-02T05:08:57;7.47;;;1.67;;
35074;SDS011;21260;34.984;32.490;2023-02-02T05:11:36;4.60;;;1.97;;
35074;SDS011;21260;34.984;32.490;2023-02-02T05:14:10;7.97;;;1.53;;
35074;SDS011;21260;34.984;32.490;2023-02-02T05:16:52;7.20;;;1.87;;
35074;SDS011;21260;34.984;32.490;2023-02-02T05:19:20;6.90;;;1.50;;
35074;SDS011;21260;34.984;32.490;2023-02-02T05:21:52;9.30;;;2.47;;
35074;SDS011;21260;34.984;32.490;2023-02-02T05:24:22;9.30;;;1.70;;
35074;SDS011;21260;34.984;32.490;2023-02-02T05:27:15;6.60;;;2.00;;
35074;SDS011;21260;34.984;32.490;2023-02-02T05:29:45;4.77;;;1.60;;
35074;SDS011;21260;34.984;32.490;2023-02-02T05:32:21;7.10;;;1.73;;
35074;SDS011;21260;34.984;32.490;2023-02-02T05:34:54;10.80;;;2.13;;
35074;SDS011;21260;34.984;32.490;2023-02-02T05:37:26;5.80;;;1.80;;
35074;SDS011;21260;34.984;32.490;2023-02-02T05:39:53;10.00;;;1.80;;
35074;SDS011;21260;34.984;32.490;2023-02-02T05:42:20;7.87;;;2.20;;
35074;SDS011;21260;34.984;32.490;2023-02-02T05:44:46;7.73;;;2.13;;
35074;SDS011;21260;34.984;32.490;2023-02-02T05:47:18;9.00;;;1.97;;
35074;SDS011;21260;34.984;32.490;2023-02-02T05:49:48;7.87;;;2.00;;
35074;SDS011;21260;34.984;32.490;2023-02-02T05:52:20;11.97;;;2.03;;
35074;SDS011;21260;34.984;32.490;2023-02-02T05:54:54;4.90;;;1.67;;
35074;SDS011;21260;34.984;32.490;2023-02-02T05:57:22;8.90;;;1.90;;
35074;SDS011;21260;34.984;32.490;2023-02-02T05:59:51;12.17;;;2.27;;
35074;SDS011;21260;34.984;32.490;2023-02-02T06:02:30;11.57;;;1.90;;
35074;SDS011;21260;34.984;32.490;2023-02-02T06:04:56;9.27;;;2.10;;
35074;SDS011;21260;34.984;32.490;2023-02-02T06:07:27;11.20;;;1.77;;
35074;SDS011;21260;34.984;32.490;2023-02-02T06:09:57;4.53;;;1.63;;
35074;SDS011;21260;34.984;32.490;2023-02-02T06:12:34;8.87;;;2.00;;
35074;SDS011;21260;34.984;32.490;2023-02-02T06:15:08;7.47;;;1.80;;
35074;SDS011;21260;34.984;32.490;2023-02-02T06:17:39;7.60;;;2.10;;
35074;SDS011;21260;34.984;32.490;2023-02-02T06:20:12;6.50;;;2.00;;
35074;SDS011;21260;34.984;32.490;2023-02-02T06:22:49;6.20;;;1.83;;
35074;SDS011;21260;34.984;32.490;2023-02-02T06:25:18;8.50;;;1.80;;
35074;SDS011;21260;34.984;32.490;2023-02-02T06:27:46;7.97;;;2.23;;
35074;SDS011;21260;34.984;32.490;2023-02-02T06:30:29;9.10;;;2.43;;
35074;SDS011;21260;34.984;32.490;2023-02-02T06:33:00;9.97;;;1.80;;
35074;SDS011;21260;34.984;32.490;2023-02-02T06:35:36;8.23;;;1.70;;
35074;SDS011;21260;34.984;32.490;2023-02-02T06:38:03;6.73;;;1.93;;
35074;SDS011;21260;34.984;32.490;2023-02-02T06:40:39;6.33;;;1.97;;
35074;SDS011;21260;34.984;32.490;2023-02-02T06:43:08;4.93;;;1.60;;
35074;SDS011;21260;34.984;32.490;2023-02-02T06:45:43;5.73;;;2.00;;
35074;SDS011;21260;34.984;32.490;2023-02-02T06:48:16;3.70;;;1.70;;
35074;SDS011;21260;34.984;32.490;2023-02-02T06:50:48;4.73;;;1.50;;
35074;SDS011;21260;34.984;32.490;2023-02-02T06:53:22;6.53;;;1.60;;
35074;SDS011;21260;34.984;32.490;2023-02-02T06:55:55;10.70;;;1.80;;
35074;SDS011;21260;34.984;32.490;2023-02-02T06:58:38;3.80;;;1.87;;
35074;SDS011;21260;34.984;32.490;2023-02-02T07:01:10;8.70;;;1.90;;
35074;SDS011;21260;34.984;32.490;2023-02-02T07:03:42;8.60;;;2.00;;
35074;SDS011;21260;34.984;32.490;2023-02-02T07:06:27;6.60;;;2.13;;
35074;SDS011;21260;34.984;32.490;2023-02-02T07:09:02;12.33;;;2.00;;
35074;SDS011;21260;34.984;32.490;2023-02-02T07:11:30;5.07;;;2.00;;
35074;SDS011;21260;34.984;32.490;2023-02-02T07:14:19;6.70;;;1.83;;
35074;SDS011;21260;34.984;32.490;2023-02-02T07:16:52;9.93;;;1.97;;
35074;SDS011;21260;34.984;32.490;2023-02-02T07:19:23;11.67;;;2.47;;
35074;SDS011;21260;34.984;32.490;2023-02-02T07:21:52;7.53;;;1.97;;
35074;SDS011;21260;34.984;32.490;2023-02-02T07:24:26;4.83;;;2.00;;
35074;SDS011;21260;34.984;32.490;2023-02-02T07:27:02;5.77;;;2.30;;
35074;SDS011;21260;34.984;32.490;2023-02-02T07:29:30;7.73;;;2.23;;
35074;SDS011;21260;34.984;32.490;2023-02-02T07:32:00;4.97;;;2.00;;
35074;SDS011;21260;34.984;32.490;2023-02-02T07:34:35;6.63;;;1.90;;
35074;SDS011;21260;34.984;32.490;2023-02-02T07:37:08;9.67;;;2.73;;
35074;SDS011;21260;34.984;32.490;2023-02-02T07:39:37;6.50;;;1.90;;
35074;SDS011;21260;34.984;32.490;2023-02-02T07:42:06;8.43;;;1.90;;
35074;SDS011;21260;34.984;32.490;2023-02-02T07:44:38;8.20;;;2.20;;
35074;SDS011;21260;34.984;32.490;2023-02-02T07:47:05;8.53;;;1.97;;
35074;SDS011;21260;34.984;32.490;2023-02-02T07:49:53;9.33;;;1.90;;
35074;SDS011;21260;34.984;32.490;2023-02-02T07:52:38;11.23;;;2.07;;
35074;SDS011;21260;34.984;32.490;2023-02-02T07:55:20;4.47;;;1.80;;
35074;SDS011;21260;34.984;32.490;2023-02-02T07:57:55;5.27;;;2.00;;
35074;SDS011;21260;34.984;32.490;2023-02-02T08:00:37;4.90;;;1.80;;
35074;SDS011;21260;34.984;32.490;2023-02-02T08:03:05;12.83;;;2.10;;
35074;SDS011;21260;34.984;32.490;2023-02-02T08:05:38;5.13;;;1.70;;
35074;SDS011;21260;34.984;32.490;2023-02-02T08:08:16;4.03;;;1.63;;
35074;SDS011;21260;34.984;32.490;2023-02-02T08:10:51;11.93;;;2.10;;
35074;SDS011;21260;34.984;32.490;2023-02-02T08:13:23;11.53;;;2.20;;
35074;SDS011;21260;34.984;32.490;2023-02-02T08:15:57;8.97;;;2.80;;
35074;SDS011;21260;34.984;32.490;2023-02-02T08:18:27;9.67;;;2.27;;
35074;SDS011;21260;34.984;32.490;2023-02-02T08:20:58;9.50;;;2.13;;
35074;SDS011;21260;34.984;32.490;2023-02-02T08:23:28;7.73;;;2.43;;
35074;SDS011;21260;34.984;32.490;2023-02-02T08:28:56;3.57;;;1.80;;
35074;SDS011;21260;34.984;32.490;2023-02-02T08:31:42;10.83;;;2.67;;
35074;SDS011;21260;34.984;32.490;2023-02-02T08:34:22;4.80;;;2.27;;
35074;SDS011;21260;34.984;32.490;2023-02-02T08:37:05;8.87;;;2.10;;
35074;SDS011;21260;34.984;32.490;2023-02-02T08:39:36;6.10;;;1.90;;
35074;SDS011;21260;34.984;32.490;2023-02-02T08:42:10;6.27;;;1.80;;
35074;SDS011;21260;34.984;32.490;2023-02-02T08:44:38;9.37;;;2.17;;
35074;SDS011;21260;34.984;32.490;2023-02-02T08:47:06;8.67;;;1.90;;
35074;SDS011;21260;34.984;32.490;2023-02-02T08:49:37;13.53;;;2.13;;
35074;SDS011;21260;34.984;32.490;2023-02-02T08:52:07;5.50;;;1.87;;
35074;SDS011;21260;34.984;32.490;2023-02-02T08:54:38;5.57;;;2.10;;
35074;SDS011;21260;34.984;32.490;2023-02-02T08:57:08;4.17;;;1.77;;
35074;SDS011;21260;34.984;32.490;2023-02-02T08:59:41;3.50;;;1.77;;
35074;SDS011;21260;34.984;32.490;2023-02-02T09:02:13;6.50;;;2.30;;
35074;SDS011;21260;34.984;32.490;2023-02-02T09:04:50;10.93;;;2.30;;
35074;SDS011;21260;34.984;32.490;2023-02-02T09:07:21;10.83;;;2.33;;
35074;SDS011;21260;34.984;32.490;2023-02-02T09:09:51;11.00;;;2.60;;
35074;SDS011;21260;34.984;32.490;2023-02-02T09:12:23;8.00;;;2.37;;
35074;SDS011;21260;34.984;32.490;2023-02-02T09:15:01;8.40;;;2.50;;
35074;SDS011;21260;34.984;32.490;2023-02-02T09:17:37;8.33;;;1.97;;
35074;SDS011;21260;34.984;32.490;2023-02-02T09:20:09;6.97;;;1.87;;
35074;SDS011;21260;34.984;32.490;2023-02-02T09:22:38;2.83;;;1.50;;
35074;SDS011;21260;34.984;32.490;2023-02-02T09:25:06;5.73;;;2.00;;
35074;SDS011;21260;34.984;32.490;2023-02-02T09:27:37;5.13;;;2.20;;
35074;SDS011;21260;34.984;32.490;2023-02-02T09:30:07;5.70;;;1.77;;
35074;SDS011;21260;34.984;32.490;2023-02-02T09:32:38;6.93;;;1.87;;
35074;SDS011;21260;34.984;32.490;2023-02-02T09:35:10;8.20;;;2.13;;
35074;SDS011;21260;34.984;32.490;2023-02-02T09:37:38;9.60;;;2.07;;
35074;SDS011;21260;34.984;32.490;2023-02-02T09:40:13;8.83;;;2.30;;
35074;SDS011;21260;34.984;32.490;2023-02-02T09:49:02;6.70;;;1.90;;
35074;SDS011;21260;34.984;32.490;2023-02-02T09:51:50;8.37;;;2.00;;
35074;SDS011;21260;34.984;32.490;2023-02-02T09:54:37;7.57;;;2.17;;
35074;SDS011;21260;34.984;32.490;2023-02-02T09:57:20;9.93;;;1.93;;
35074;SDS011;21260;34.984;32.490;2023-02-02T10:00:00;7.70;;;2.57;;
35074;SDS011;21260;34.984;32.490;2023-02-02T10:03:01;5.27;;;2.63;;
35074;SDS011;21260;34.984;32.490;2023-02-02T10:24:25;9.13;;;2.20;;
35074;SDS011;21260;34.984;32.490;2023-02-02T10:26:58;14.97;;;2.10;;
35074;SDS011;21260;34.984;32.490;2023-02-02T10:29:59;6.27;;;1.90;;
35074;SDS011;21260;34.984;32.490;2023-02-02T10:32:35;6.07;;;2.30;;
35074;SDS011;21260;34.984;32.490;2023-02-02T10:43:59;6.47;;;1.80;;
35074;SDS011;21260;34.984;32.490;2023-02-02T10:49:46;7.40;;;2.10;;
35074;SDS011;21260;34.984;32.490;2023-02-02T10:52:44;6.33;;;1.93;;
35074;SDS011;21260;34.984;32.490;2023-02-02T11:01:32;7.70;;;2.10;;
35074;SDS011;21260;34.984;32.490;2023-02-02T11:03:59;7.20;;;1.70;;
35074;SDS011;21260;34.984;32.490;2023-02-02T11:06:53;5.63;;;1.77;;
35074;SDS011;21260;34.984;32.490;2023-02-02T11:09:31;8.67;;;2.00;;
35074;SDS011;21260;34.984;32.490;2023-02-02T11:12:09;5.17;;;1.90;;
35074;SDS011;21260;34.984;32.490;2023-02-02T11:15:08;4.87;;;1.70;;
35074;SDS011;21260;34.984;32.490;2023-02-02T11:17:54;6.30;;;2.10;;
35074;SDS011;21260;34.984;32.490;2023-02-02T11:20:40;8.70;;;2.30;;
35074;SDS011;21260;34.984;32.490;2023-02-02T11:23:08;5.80;;;1.90;;
35074;SDS011;21260;34.984;32.490;2023-02-02T11:25:56;7.03;;;1.87;;
35074;SDS011;21260;34.984;32.490;2023-02-02T11:28:32;3.83;;;2.13;;
35074;SDS011;21260;34.984;32.490;2023-02-02T11:31:05;4.93;;;2.00;;
35074;SDS011;21260;34.984;32.490;2023-02-02T11:33:34;3.90;;;1.70;;
35074;SDS011;21260;34.984;32.490;2023-02-02T11:36:19;5.17;;;2.03;;
35074;SDS011;21260;34.984;32.490;2023-02-02T11:39:03;6.83;;;1.97;;
35074;SDS011;21260;34.984;32.490;2023-02-02T11:41:48;10.17;;;2.57;;
35074;SDS011;21260;34.984;32.490;2023-02-02T11:44:24;5.20;;;2.03;;
35074;SDS011;21260;34.984;32.490;2023-02-02T11:46:58;7.03;;;1.97;;
35074;SDS011;21260;34.984;32.490;2023-02-02T11:49:37;8.17;;;1.90;;
35074;SDS011;21260;34.984;32.490;2023-02-02T11:52:15;6.87;;;2.20;;
35074;SDS011;21260;34.984;32.490;2023-02-02T11:54:55;8.53;;;2.03;;
35074;SDS011;21260;34.984;32.490;2023-02-02T11:57:38;5.23;;;1.70;;
35074;SDS011;21260;34.984;32.490;2023-02-02T12:00:47;7.87;;;1.83;;
35074;SDS011;21260;34.984;32.490;2023-02-02T12:03:28;6.03;;;2.10;;
35074;SDS011;21260;34.984;32.490;2023-02-02T12:06:26;4.47;;;2.10;;
35074;SDS011;21260;34.984;32.490;2023-02-02T12:09:12;5.87;;;1.80;;
35074;SDS011;21260;34.984;32.490;2023-02-02T12:15:21;4.43;;;1.93;;
35074;SDS011;21260;34.984;32.490;2023-02-02T12:21:07;6.07;;;2.13;;
35074;SDS011;21260;34.984;32.490;2023-02-02T12:24:12;6.40;;;1.90;;
35074;SDS011;21260;34.984;32.490;2023-02-02T12:30:52;12.33;;;2.47;;
35074;SDS011;21260;34.984;32.490;2023-02-02T12:33:50;10.50;;;1.83;;
35074;SDS011;21260;34.984;32.490;2023-02-02T12:36:26;8.37;;;2.23;;
35074;SDS011;21260;34.984;32.490;2023-02-02T12:47:40;4.60;;;1.90;;
35074;SDS011;21260;34.984;32.490;2023-02-02T12:54:04;10.50;;;2.30;;
35074;SDS011;21260;34.984;32.490;2023-02-02T13:03:25;6.23;;;1.90;;
35074;SDS011;21260;34.984;32.490;2023-02-02T13:09:39;6.23;;;2.03;;
35074;SDS011;21260;34.984;32.490;2023-02-02T13:12:20;9.17;;;2.27;;
35074;SDS011;21260;34.984;32.490;2023-02-02T13:14:51;6.83;;;2.07;;
35074;SDS011;21260;34.984;32.490;2023-02-02T13:17:32;9.87;;;2.10;;
35074;SDS011;21260;34.984;32.490;2023-02-02T13:20:26;7.87;;;1.93;;
35074;SDS011;21260;34.984;32.490;2023-02-02T13:23:27;6.50;;;1.90;;
35074;SDS011;21260;34.984;32.490;2023-02-02T13:34:43;7.07;;;2.10;;
35074;SDS011;21260;34.984;32.490;2023-02-02T13:40:29;5.73;;;2.10;;
35074;SDS011;21260;34.984;32.490;2023-02-02T13:54:58;4.30;;;1.77;;
35074;SDS011;21260;34.984;32.490;2023-02-02T14:00:54;4.80;;;1.83;;
35074;SDS011;21260;34.984;32.490;2023-02-02T14:03:51;6.30;;;1.97;;
35074;SDS011;21260;34.984;32.490;2023-02-02T14:06:20;7.23;;;1.80;;
35074;SDS011;21260;34.984;32.490;2023-02-02T14:09:27;5.53;;;1.90;;
35074;SDS011;21260;34.984;32.490;2023-02-02T14:12:06;6.93;;;2.00;;
35074;SDS011;21260;34.984;32.490;2023-02-02T14:14:41;5.33;;;2.13;;
35074;SDS011;21260;34.984;32.490;2023-02-02T14:20:01;7.67;;;2.17;;
35074;SDS011;21260;34.984;32.490;2023-02-02T14:22:54;6.87;;;2.00;;
35074;SDS011;21260;34.984;32.490;2023-02-02T14:28:12;5.80;;;1.80;;
35074;SDS011;21260;34.984;32.490;2023-02-02T14:34:50;4.67;;;1.80;;
35074;SDS011;21260;34.984;32.490;2023-02-02T14:39:55;7.73;;;2.40;;
35074;SDS011;21260;34.984;32.490;2023-02-02T14:45:29;10.23;;;1.87;;
35074;SDS011;21260;34.984;32.490;2023-02-02T14:48:19;9.87;;;2.00;;
35074;SDS011;21260;34.984;32.490;2023-02-02T14:51:00;5.43;;;1.87;;
35074;SDS011;21260;34.984;32.490;2023-02-02T14:56:52;9.47;;;2.40;;
35074;SDS011;21260;34.984;32.490;2023-02-02T14:59:31;5.07;;;1.90;;
35074;SDS011;21260;34.984;32.490;2023-02-02T15:05:43;5.53;;;2.10;;
35074;SDS011;21260;34.984;32.490;2023-02-02T15:08:26;3.83;;;2.07;;
35074;SDS011;21260;34.984;32.490;2023-02-02T15:13:48;6.13;;;2.50;;
35074;SDS011;21260;34.984;32.490;2023-02-02T15:16:32;5.17;;;2.47;;
35074;SDS011;21260;34.984;32.490;2023-02-02T15:19:29;5.77;;;3.07;;
35074;SDS011;21260;34.984;32.490;2023-02-02T15:22:49;13.00;;;4.77;;
35074;SDS011;21260;34.984;32.490;2023-02-02T15:25:19;21.47;;;7.00;;
35074;SDS011;21260;34.984;32.490;2023-02-02T15:31:18;17.37;;;5.63;;
35074;SDS011;21260;34.984;32.490;2023-02-02T15:34:26;22.43;;;7.77;;
35074;SDS011;21260;34.984;32.490;2023-02-02T15:37:29;33.83;;;11.30;;
35074;SDS011;21260;34.984;32.490;2023-02-02T15:40:23;70.80;;;22.50;;
35074;SDS011;21260;34.984;32.490;2023-02-02T15:43:10;44.43;;;14.97;;
35074;SDS011;21260;34.984;32.490;2023-02-02T15:45:46;28.77;;;10.67;;
35074;SDS011;21260;34.984;32.490;2023-02-02T15:48:26;50.93;;;15.93;;
35074;SDS011;21260;34.984;32.490;2023-02-02T15:51:03;66.93;;;20.47;;
35074;SDS011;21260;34.984;32.490;2023-02-02T15:53:47;68.27;;;22.93;;
35074;SDS011;21260;34.984;32.490;2023-02-02T15:56:27;52.50;;;17.50;;
35074;SDS011;21260;34.984;32.490;2023-02-02T15:58:58;30.47;;;9.60;;
35074;SDS011;21260;34.984;32.490;2023-02-02T16:01:29;42.73;;;13.27;;
35074;SDS011;21260;34.984;32.490;2023-02-02T16:04:18;33.50;;;11.73;;
35074;SDS011;21260;34.984;32.490;2023-02-02T16:06:53;25.73;;;9.00;;
35074;SDS011;21260;34.984;32.490;2023-02-02T16:09:34;32.83;;;9.67;;
35074;SDS011;21260;34.984;32.490;2023-02-02T16:12:06;53.77;;;16.30;;
35074;SDS011;21260;34.984;32.490;2023-02-02T16:14:46;52.07;;;16.37;;
35074;SDS011;21260;34.984;32.490;2023-02-02T16:17:26;61.80;;;20.27;;
35074;SDS011;21260;34.984;32.490;2023-02-02T16:20:04;35.43;;;10.47;;
35074;SDS011;21260;34.984;32.490;2023-02-02T16:22:44;30.77;;;8.73;;
35074;SDS011;21260;34.984;32.490;2023-02-02T16:25:16;29.13;;;8.97;;
35074;SDS011;21260;34.984;32.490;2023-02-02T16:27:47;21.03;;;6.90;;
35074;SDS011;21260;34.984;32.490;2023-02-02T16:30:29;9.67;;;3.83;;
35074;SDS011;21260;34.984;32.490;2023-02-02T16:36:23;5.23;;;2.40;;
35074;SDS011;21260;34.984;32.490;2023-02-02T16:38:56;7.17;;;2.43;;
35074;SDS011;21260;34.984;32.490;2023-02-02T16:41:32;9.70;;;2.03;;
35074;SDS011;21260;34.984;32.490;2023-02-02T16:47:01;6.27;;;2.50;;
35074;SDS011;21260;34.984;32.490;2023-02-02T16:49:31;6.67;;;2.20;;
35074;SDS011;21260;34.984;32.490;2023-02-02T16:54:53;8.40;;;2.27;;
35074;SDS011;21260;34.984;32.490;2023-02-02T16:57:31;5.33;;;2.03;;
35074;SDS011;21260;34.984;32.490;2023-02-02T17:00:02;6.03;;;2.37;;
35074;SDS011;21260;34.984;32.490;2023-02-02T17:02:34;8.53;;;2.43;;
35074;SDS011;21260;34.984;32.490;2023-02-02T17:08:35;5.40;;;2.10;;
35074;SDS011;21260;34.984;32.490;2023-02-02T17:14:18;7.10;;;2.10;;
35074;SDS011;21260;34.984;32.490;2023-02-02T17:16:53;10.37;;;2.43;;
35074;SDS011;21260;34.984;32.490;2023-02-02T17:19:27;5.13;;;1.93;;
35074;SDS011;21260;34.984;32.490;2023-02-02T17:22:00;6.30;;;1.80;;
35074;SDS011;21260;34.984;32.490;2023-02-02T17:24:30;4.37;;;1.90;;
35074;SDS011;21260;34.984;32.490;2023-02-02T17:26:58;3.90;;;1.90;;
35074;SDS011;21260;34.984;32.490;2023-02-02T17:29:31;4.80;;;2.10;;
35074;SDS011;21260;34.984;32.490;2023-02-02T17:32:01;8.10;;;2.10;;
35074;SDS011;21260;34.984;32.490;2023-02-02T17:34:28;5.53;;;2.20;;
35074;SDS011;21260;34.984;32.490;2023-02-02T17:36:55;6.87;;;2.10;;
35074;SDS011;21260;34.984;32.490;2023-02-02T17:39:32;7.27;;;2.00;;
35074;SDS011;21260;34.984;32.490;2023-02-02T17:42:00;7.40;;;1.80;;
35074;SDS011;21260;34.984;32.490;2023-02-02T17:44:47;5.37;;;1.97;;
35074;SDS011;21260;34.984;32.490;2023-02-02T17:47:13;6.27;;;2.20;;
35074;SDS011;21260;34.984;32.490;2023-02-02T17:49:42;14.33;;;2.20;;
35074;SDS011;21260;34.984;32.490;2023-02-02T17:52:15;4.17;;;1.67;;
35074;SDS011;21260;34.984;32.490;2023-02-02T17:54:43;6.50;;;2.20;;
35074;SDS011;21260;34.984;32.490;2023-02-02T17:57:10;9.90;;;2.00;;
35074;SDS011;21260;34.984;32.490;2023-02-02T17:59:40;6.47;;;1.87;;
35074;SDS011;21260;34.984;32.490;2023-02-02T18:02:18;6.00;;;1.63;;
35074;SDS011;21260;34.984;32.490;2023-02-02T18:04:54;7.73;;;1.83;;
35074;SDS011;21260;34.984;32.490;2023-02-02T18:07:25;3.87;;;1.97;;
35074;SDS011;21260;34.984;32.490;2023-02-02T18:09:59;7.03;;;2.00;;
35074;SDS011;21260;34.984;32.490;2023-02-02T18:12:27;10.80;;;2.90;;
35074;SDS011;21260;34.984;32.490;2023-02-02T18:14:53;11.97;;;3.23;;
35074;SDS011;21260;34.984;32.490;2023-02-02T18:17:20;18.20;;;5.63;;
35074;SDS011;21260;34.984;32.490;2023-02-02T18:19:53;20.07;;;6.13;;
35074;SDS011;21260;34.984;32.490;2023-02-02T18:22:23;71.37;;;20.23;;
35074;SDS011;21260;34.984;32.490;2023-02-02T18:24:50;78.10;;;22.37;;
35074;SDS011;21260;34.984;32.490;2023-02-02T18:27:28;69.90;;;21.83;;
35074;SDS011;21260;34.984;32.490;2023-02-02T18:29:54;91.23;;;26.17;;
35074;SDS011;21260;34.984;32.490;2023-02-02T18:32:25;93.70;;;28.33;;
35074;SDS011;21260;34.984;32.490;2023-02-02T18:34:54;93.83;;;28.83;;
35074;SDS011;21260;34.984;32.490;2023-02-02T18:37:28;41.63;;;13.63;;